This is the latest recevied weather packets stored in our database for station/object Aulendorf. If no packets are shown the sender has not sent any weather packets the latest 10 day(s).
| Time | Temp. | Humidity | Pressure | Rain* | Wind** | Luminosity | Snow |
|---|---|---|---|---|---|---|---|
| 1777851129 | 12.22° C | 65% | 1013.7 hPa | 0 mm | - | - | - |
| 1777849329 | 12.78° C | 63% | 1013.8 hPa | 0 mm | - | - | - |
| 1777847530 | 12.78° C | 62% | 1013.9 hPa | 0 mm | - | - | - |
| 1777845732 | 13.33° C | 60% | 1013.5 hPa | 0 mm | - | - | - |
| 1777843930 | 13.33° C | 58% | 1013.4 hPa | 0 mm | - | - | - |
| 1777842131 | 14.44° C | 55% | 1013.2 hPa | 0 mm | - | - | - |
| 1777840329 | 15.56° C | 51% | 1012.9 hPa | 0 mm | - | - | - |
| 1777838531 | 16.67° C | 46% | 1012.2 hPa | 0 mm | - | - | - |
| 1777836730 | 17.22° C | 43% | 1011.9 hPa | 0 mm | - | - | - |
| 1777834930 | 18.33° C | 43% | 1012 hPa | 0 mm | - | - | - |
| 1777833130 | 20° C | 47% | 1011 hPa | 0 mm | - | - | - |
| 1777831330 | 21.11° C | 45% | 1010.6 hPa | 0 mm | - | - | - |
| 1777829530 | 21.67° C | 41% | 1010.4 hPa | 0 mm | - | - | - |
| 1777827731 | 22.22° C | 39% | 1010.4 hPa | 0 mm | - | - | - |
| 1777825930 | 22.78° C | 36% | 1010.5 hPa | 0 mm | - | - | - |
| 1777824131 | 22.78° C | 31% | 1010.3 hPa | 0 mm | - | - | - |
| 1777822330 | 23.89° C | 30% | 1010.3 hPa | 0 mm | - | - | - |
| 1777820530 | 24.44° C | 30% | 1010.4 hPa | 0 mm | - | - | - |
| 1777818730 | 25° C | 26% | 1010.6 hPa | 0 mm | - | - | - |
| 1777816930 | 25° C | 26% | 1010.6 hPa | 0 mm | - | - | - |
| 1777815131 | 25° C | 32% | 1011.1 hPa | 0 mm | - | - | - |
| 1777813330 | 24.44° C | 30% | 1011.5 hPa | 0 mm | - | - | - |
| 1777811536 | 25° C | 29% | 1011.7 hPa | 0 mm | - | - | - |
| 1777809730 | 23.89° C | 34% | 1012 hPa | 0 mm | - | - | - |
| 1777807932 | 23.33° C | 36% | 1012.2 hPa | 0 mm | - | - | - |
* Rain since midnight (hover to see other rain measurements)
** Current wind speed in m/s (hover to see current wind gust speed)